createdAt,value
2017-09-08T00:01:08.086Z,0
2017-09-08T00:02:16.915Z,0
2017-09-08T00:03:25.745Z,0
2017-09-08T00:04:34.573Z,0
2017-09-08T00:05:43.407Z,0
2017-09-08T00:06:52.238Z,0
2017-09-08T00:08:01.071Z,0
2017-09-08T00:09:09.900Z,0
2017-09-08T00:10:18.723Z,0
2017-09-08T00:11:27.557Z,0
2017-09-08T00:12:36.381Z,0
2017-09-08T00:13:45.215Z,0
2017-09-08T00:14:54.039Z,0
2017-09-08T00:16:02.869Z,0
2017-09-08T00:17:11.704Z,0
2017-09-08T00:18:20.532Z,0
2017-09-08T00:19:29.363Z,0
2017-09-08T00:20:38.189Z,0
2017-09-08T00:21:47.018Z,0
2017-09-08T00:22:55.846Z,0
2017-09-08T00:24:04.677Z,0
2017-09-08T00:25:13.506Z,0
2017-09-08T00:26:22.335Z,0
2017-09-08T00:27:31.161Z,0
2017-09-08T00:28:39.986Z,0
2017-09-08T00:29:48.821Z,0
2017-09-08T00:30:57.966Z,0
2017-09-08T00:32:06.793Z,0
2017-09-08T00:33:16.267Z,0
2017-09-08T00:34:25.099Z,0
2017-09-08T00:35:33.928Z,0
2017-09-08T00:36:42.751Z,0
2017-09-08T00:37:51.583Z,0
2017-09-08T00:39:00.413Z,0
2017-09-08T00:40:09.241Z,0
2017-09-08T00:41:18.073Z,0
2017-09-08T00:42:27.228Z,0
2017-09-08T00:43:36.054Z,0
2017-09-08T00:44:45.207Z,0
2017-09-08T00:45:54.037Z,0
2017-09-08T00:47:02.869Z,0
2017-09-08T00:48:11.698Z,0
2017-09-08T00:49:20.849Z,0
2017-09-08T00:50:29.673Z,0
2017-09-08T00:51:38.505Z,0
2017-09-08T00:52:47.334Z,0
2017-09-08T00:53:56.162Z,0
2017-09-08T00:55:04.991Z,0
2017-09-08T00:56:13.823Z,0
2017-09-08T00:57:22.654Z,0
2017-09-08T00:58:31.481Z,0
2017-09-08T00:59:40.313Z,0
2017-09-08T01:00:49.140Z,0
2017-09-08T01:01:57.967Z,0
2017-09-08T01:03:06.795Z,0
2017-09-08T01:04:15.625Z,0
2017-09-08T01:05:24.458Z,0
2017-09-08T01:06:33.286Z,0
2017-09-08T01:07:42.116Z,0
2017-09-08T01:08:50.939Z,0
2017-09-08T01:09:59.769Z,0
2017-09-08T01:11:08.594Z,0
2017-09-08T01:12:17.429Z,0
2017-09-08T01:13:26.263Z,0
2017-09-08T01:14:35.088Z,0
2017-09-08T01:15:43.915Z,0
2017-09-08T01:16:52.745Z,0
2017-09-08T01:18:01.894Z,0
2017-09-08T01:19:10.728Z,0
2017-09-08T01:20:19.555Z,0
2017-09-08T01:21:28.385Z,0
2017-09-08T01:22:37.211Z,0
2017-09-08T01:23:46.069Z,0
2017-09-08T01:24:54.872Z,0
2017-09-08T01:26:03.702Z,0
2017-09-08T01:27:12.531Z,0
2017-09-08T01:28:21.355Z,0
2017-09-08T01:29:30.186Z,0
2017-09-08T01:30:39.021Z,0
2017-09-08T01:31:48.170Z,0
2017-09-08T01:32:57.000Z,0
2017-09-08T01:34:05.825Z,0
2017-09-08T01:35:14.656Z,0
2017-09-08T01:36:23.482Z,0
2017-09-08T01:37:32.314Z,0
2017-09-08T01:38:41.142Z,0
2017-09-08T01:39:49.971Z,0
2017-09-08T01:40:58.801Z,0
2017-09-08T01:42:07.628Z,0
2017-09-08T01:43:16.455Z,0
2017-09-08T01:44:25.283Z,0
2017-09-08T01:45:34.110Z,0
2017-09-08T01:46:42.941Z,0
2017-09-08T01:47:51.767Z,0
2017-09-08T01:49:00.597Z,0
2017-09-08T01:50:09.422Z,0
2017-09-08T01:51:18.258Z,0
2017-09-08T01:52:27.082Z,0
2017-09-08T01:53:35.911Z,0
2017-09-08T01:54:44.740Z,0
2017-09-08T01:55:53.567Z,0
2017-09-08T01:57:02.394Z,0
2017-09-08T01:58:11.224Z,0
2017-09-08T01:59:20.056Z,0
2017-09-08T02:00:28.886Z,0
2017-09-08T02:01:38.035Z,0
2017-09-08T02:02:46.861Z,0
2017-09-08T02:03:55.687Z,0
2017-09-08T02:05:04.517Z,0
2017-09-08T02:06:13.346Z,0
2017-09-08T02:07:22.178Z,0
2017-09-08T02:08:31.328Z,0
2017-09-08T02:09:40.154Z,0
2017-09-08T02:10:48.981Z,0
2017-09-08T02:11:57.812Z,0
2017-09-08T02:13:06.964Z,0
2017-09-08T02:14:15.797Z,0
2017-09-08T02:15:24.627Z,0
2017-09-08T02:16:33.451Z,0
2017-09-08T02:17:42.282Z,0
2017-09-08T02:18:51.112Z,0
2017-09-08T02:19:59.940Z,0
2017-09-08T02:21:08.771Z,0
2017-09-08T02:22:17.610Z,0
2017-09-08T02:23:26.436Z,0
2017-09-08T02:24:35.264Z,0
2017-09-08T02:25:44.092Z,0
2017-09-08T02:26:52.921Z,0
2017-09-08T02:28:01.754Z,0
2017-09-08T02:29:10.578Z,0
2017-09-08T02:30:19.742Z,0
2017-09-08T02:31:28.571Z,0
2017-09-08T02:32:37.407Z,0
2017-09-08T02:33:46.231Z,0
2017-09-08T02:34:55.064Z,0
2017-09-08T02:36:03.889Z,0
2017-09-08T02:37:12.718Z,0
2017-09-08T02:38:21.540Z,0
2017-09-08T02:39:30.370Z,0
2017-09-08T02:40:39.199Z,0
2017-09-08T02:41:48.027Z,0
2017-09-08T02:42:56.854Z,0
2017-09-08T02:44:05.681Z,0
2017-09-08T02:45:14.510Z,0
2017-09-08T02:46:23.336Z,0
2017-09-08T02:47:32.159Z,0
2017-09-08T02:48:40.988Z,0
2017-09-08T02:49:49.813Z,0
2017-09-08T02:50:58.643Z,0
2017-09-08T02:52:07.469Z,0
2017-09-08T02:53:16.302Z,0
2017-09-08T02:54:25.128Z,0
2017-09-08T02:55:33.955Z,0
2017-09-08T02:56:42.787Z,0
2017-09-08T02:57:51.614Z,0
2017-09-08T02:59:00.441Z,0
2017-09-08T03:00:09.267Z,0
2017-09-08T03:01:18.096Z,0
2017-09-08T03:02:26.929Z,0
2017-09-08T03:03:36.114Z,0
2017-09-08T03:04:44.941Z,0
2017-09-08T03:05:53.765Z,0
2017-09-08T03:07:02.594Z,0
2017-09-08T03:08:11.419Z,0
2017-09-08T03:09:20.249Z,0
2017-09-08T03:10:29.082Z,0
2017-09-08T03:11:38.230Z,0
2017-09-08T03:12:47.057Z,0
2017-09-08T03:13:55.892Z,0
2017-09-08T03:15:04.720Z,0
2017-09-08T03:16:13.596Z,0
2017-09-08T03:17:22.426Z,0
2017-09-08T03:18:31.255Z,0
2017-09-08T03:19:40.079Z,0
2017-09-08T03:20:48.904Z,0
2017-09-08T03:21:57.732Z,0
2017-09-08T03:23:06.561Z,0
2017-09-08T03:24:15.719Z,0
2017-09-08T03:25:24.542Z,0
2017-09-08T03:26:33.363Z,0
2017-09-08T03:27:42.193Z,0
2017-09-08T03:28:51.019Z,0
2017-09-08T03:29:59.849Z,0
2017-09-08T03:31:08.679Z,0
2017-09-08T03:32:17.505Z,0
2017-09-08T03:33:26.328Z,0
2017-09-08T03:34:35.162Z,0
2017-09-08T03:35:43.994Z,0
2017-09-08T03:36:52.820Z,0
2017-09-08T03:38:01.646Z,0
2017-09-08T03:39:10.470Z,0
2017-09-08T03:40:19.300Z,0
2017-09-08T03:41:28.133Z,0
2017-09-08T03:42:36.962Z,0
2017-09-08T03:43:45.788Z,0
2017-09-08T03:44:54.617Z,0
2017-09-08T03:46:03.446Z,0
2017-09-08T03:47:12.272Z,0
2017-09-08T03:48:21.106Z,0
2017-09-08T03:49:29.940Z,0
2017-09-08T03:50:38.758Z,0
2017-09-08T03:51:47.591Z,0
2017-09-08T03:52:56.419Z,0
2017-09-08T03:54:05.251Z,0
2017-09-08T03:55:14.078Z,0
2017-09-08T03:56:22.905Z,0
2017-09-08T03:57:31.736Z,0
2017-09-08T03:58:40.568Z,0
2017-09-08T03:59:49.389Z,0
2017-09-08T04:00:58.217Z,0
2017-09-08T04:02:07.044Z,0
2017-09-08T04:03:15.871Z,0
2017-09-08T04:04:24.700Z,0
2017-09-08T04:05:33.531Z,0
2017-09-08T04:06:42.360Z,0
2017-09-08T04:07:51.184Z,0
2017-09-08T04:09:00.012Z,0
2017-09-08T04:10:08.845Z,0
2017-09-08T04:11:17.671Z,0
2017-09-08T04:12:26.497Z,0
2017-09-08T04:13:35.330Z,4
2017-09-08T04:14:44.159Z,4
2017-09-08T04:15:52.983Z,0
2017-09-08T04:17:01.814Z,0
2017-09-08T04:18:10.640Z,0
2017-09-08T04:19:19.469Z,0
2017-09-08T04:20:28.299Z,4
2017-09-08T04:21:37.455Z,4
2017-09-08T04:22:46.282Z,4
2017-09-08T04:23:55.433Z,8
2017-09-08T04:25:04.263Z,8
2017-09-08T04:26:13.086Z,8
2017-09-08T04:27:21.914Z,12
2017-09-08T04:28:30.742Z,12
2017-09-08T04:29:39.571Z,16
2017-09-08T04:30:48.404Z,12
2017-09-08T04:31:57.228Z,16
2017-09-08T04:33:06.381Z,16
2017-09-08T04:34:15.207Z,20
2017-09-08T04:35:24.038Z,20
2017-09-08T04:36:32.864Z,20
2017-09-08T04:37:41.698Z,28
2017-09-08T04:38:50.523Z,32
2017-09-08T04:39:59.351Z,36
2017-09-08T04:41:08.181Z,36
2017-09-08T04:42:17.008Z,36
2017-09-08T04:43:25.842Z,28
2017-09-08T04:44:34.672Z,28
2017-09-08T04:45:43.498Z,28
2017-09-08T04:46:52.320Z,24
2017-09-08T04:48:01.156Z,28
2017-09-08T04:49:09.985Z,28
2017-09-08T04:50:18.812Z,28
2017-09-08T04:51:27.638Z,28
2017-09-08T04:52:36.464Z,24
2017-09-08T04:53:45.324Z,20
2017-09-08T04:54:54.122Z,28
2017-09-08T04:56:02.952Z,28
2017-09-08T04:57:11.778Z,28
2017-09-08T04:58:20.607Z,36
2017-09-08T04:59:29.435Z,40
2017-09-08T05:00:38.261Z,48
2017-09-08T05:01:47.091Z,60
2017-09-08T05:02:55.917Z,60
2017-09-08T05:04:04.746Z,64
2017-09-08T05:05:13.575Z,64
2017-09-08T05:06:22.404Z,72
2017-09-08T05:07:31.235Z,80
2017-09-08T05:08:40.064Z,100
2017-09-08T05:09:48.892Z,116
2017-09-08T05:10:57.716Z,108
2017-09-08T05:12:06.546Z,108
2017-09-08T05:13:15.374Z,104
2017-09-08T05:14:24.199Z,104
2017-09-08T05:15:33.028Z,104
2017-09-08T05:16:41.857Z,96
2017-09-08T05:17:50.680Z,108
2017-09-08T05:18:59.506Z,124
2017-09-08T05:20:08.336Z,112
2017-09-08T05:21:17.165Z,112
2017-09-08T05:22:25.996Z,108
2017-09-08T05:23:34.823Z,104
2017-09-08T05:24:43.652Z,104
2017-09-08T05:25:52.483Z,108
2017-09-08T05:27:01.308Z,108
2017-09-08T05:28:10.135Z,116
2017-09-08T05:29:18.963Z,140
2017-09-08T05:30:27.793Z,132
2017-09-08T05:31:36.615Z,144
2017-09-08T05:32:45.448Z,180
2017-09-08T05:33:54.279Z,196
2017-09-08T05:35:03.108Z,232
2017-09-08T05:36:11.934Z,248
2017-09-08T05:37:20.759Z,264
2017-09-08T05:38:29.590Z,272
2017-09-08T05:39:38.418Z,316
2017-09-08T05:40:47.242Z,316
2017-09-08T05:41:56.070Z,328
2017-09-08T05:43:04.903Z,252
2017-09-08T05:44:13.731Z,192
2017-09-08T05:45:22.560Z,168
2017-09-08T05:46:31.384Z,144
2017-09-08T05:47:40.213Z,144
2017-09-08T05:48:49.043Z,156
2017-09-08T05:49:57.874Z,192
2017-09-08T05:51:06.710Z,212
2017-09-08T05:52:15.533Z,252
2017-09-08T05:53:24.361Z,268
2017-09-08T05:54:33.194Z,300
2017-09-08T05:55:42.022Z,356
2017-09-08T05:56:50.847Z,364
2017-09-08T05:57:59.678Z,404
2017-09-08T05:59:08.507Z,420
2017-09-08T06:00:17.331Z,388
2017-09-08T06:01:26.161Z,392
2017-09-08T06:02:34.999Z,404
2017-09-08T06:03:43.824Z,468
2017-09-08T06:04:52.653Z,564
2017-09-08T06:06:01.801Z,544
2017-09-08T06:07:10.633Z,392
2017-09-08T06:08:19.458Z,280
2017-09-08T06:09:28.286Z,260
2017-09-08T06:10:37.115Z,288
2017-09-08T06:11:45.945Z,336
2017-09-08T06:12:54.771Z,388
2017-09-08T06:14:03.596Z,408
2017-09-08T06:15:12.750Z,392
2017-09-08T06:16:21.579Z,356
2017-09-08T06:17:30.405Z,340
2017-09-08T06:18:39.231Z,328
2017-09-08T06:19:48.062Z,332
2017-09-08T06:20:56.890Z,352
2017-09-08T06:22:05.715Z,360
2017-09-08T06:23:14.543Z,380
2017-09-08T06:24:23.373Z,404
2017-09-08T06:25:32.203Z,436
2017-09-08T06:26:41.027Z,496
2017-09-08T06:27:49.860Z,592
2017-09-08T06:28:58.690Z,700
2017-09-08T06:30:07.518Z,772
2017-09-08T06:31:16.347Z,808
2017-09-08T06:32:25.176Z,872
2017-09-08T06:33:34.000Z,856
2017-09-08T06:34:42.833Z,748
2017-09-08T06:35:51.662Z,740
2017-09-08T06:37:00.482Z,788
2017-09-08T06:38:09.316Z,788
2017-09-08T06:39:18.148Z,736
2017-09-08T06:40:26.977Z,688
2017-09-08T06:41:35.804Z,680
2017-09-08T06:42:44.633Z,600
2017-09-08T06:43:53.787Z,580
2017-09-08T06:45:02.616Z,572
2017-09-08T06:46:11.773Z,576
2017-09-08T06:47:20.594Z,576
2017-09-08T06:48:29.428Z,556
2017-09-08T06:49:38.258Z,568
2017-09-08T06:50:47.089Z,568
2017-09-08T06:51:55.922Z,608
2017-09-08T06:53:04.749Z,552
2017-09-08T06:54:13.576Z,600
2017-09-08T06:55:22.404Z,712
2017-09-08T06:56:31.231Z,724
2017-09-08T06:57:40.063Z,772
2017-09-08T06:58:48.892Z,792
2017-09-08T06:59:57.724Z,824
2017-09-08T07:01:06.551Z,780
2017-09-08T07:02:15.379Z,808
2017-09-08T07:03:24.212Z,836
2017-09-08T07:04:33.036Z,768
2017-09-08T07:05:41.865Z,764
2017-09-08T07:06:50.699Z,884
2017-09-08T07:07:59.525Z,1016
2017-09-08T07:09:08.352Z,872
2017-09-08T07:10:17.182Z,732
2017-09-08T07:11:26.017Z,704
2017-09-08T07:12:34.845Z,756
2017-09-08T07:13:43.674Z,824
2017-09-08T07:14:52.501Z,928
2017-09-08T07:16:01.326Z,912
2017-09-08T07:17:10.155Z,852
2017-09-08T07:18:18.981Z,884
2017-09-08T07:19:27.811Z,988
2017-09-08T07:20:36.645Z,1084
2017-09-08T07:21:45.468Z,1136
2017-09-08T07:22:54.301Z,1224
2017-09-08T07:24:03.131Z,1332
2017-09-08T07:25:11.959Z,1332
2017-09-08T07:26:20.786Z,1292
2017-09-08T07:27:29.614Z,1288
2017-09-08T07:28:38.442Z,1232
2017-09-08T07:29:47.272Z,1332
2017-09-08T07:30:56.108Z,1452
2017-09-08T07:32:04.936Z,1436
2017-09-08T07:33:13.767Z,1496
2017-09-08T07:34:22.596Z,1504
2017-09-08T07:35:31.428Z,1464
2017-09-08T07:36:40.252Z,1564
2017-09-08T07:37:49.083Z,1540
2017-09-08T07:38:58.236Z,1492
2017-09-08T07:40:07.065Z,1484
2017-09-08T07:41:15.898Z,1528
2017-09-08T07:42:24.722Z,1540
2017-09-08T07:43:33.554Z,1476
2017-09-08T07:44:42.378Z,1472
2017-09-08T07:45:51.207Z,1436
2017-09-08T07:47:00.035Z,1428
2017-09-08T07:48:08.866Z,1460
2017-09-08T07:49:17.696Z,1548
2017-09-08T07:50:26.518Z,1580
2017-09-08T07:51:35.352Z,1604
2017-09-08T07:52:44.188Z,1672
2017-09-08T07:53:53.016Z,1800
2017-09-08T07:55:01.845Z,1756
2017-09-08T07:56:10.671Z,1700
2017-09-08T07:57:19.501Z,1624
2017-09-08T07:58:28.333Z,1672
2017-09-08T07:59:37.169Z,1672
2017-09-08T08:00:46.319Z,1652
2017-09-08T08:01:55.147Z,1656
2017-09-08T08:03:03.976Z,1612
2017-09-08T08:04:12.803Z,1676
2017-09-08T08:05:21.638Z,1784
2017-09-08T08:06:30.464Z,1744
2017-09-08T08:07:39.291Z,1768
2017-09-08T08:08:48.117Z,1768
2017-09-08T08:09:56.950Z,1828
2017-09-08T08:11:05.779Z,1764
2017-09-08T08:12:14.612Z,1676
2017-09-08T08:13:23.436Z,1624
2017-09-08T08:14:32.586Z,1520
2017-09-08T08:15:41.418Z,1528
2017-09-08T08:16:50.245Z,1548
2017-09-08T08:17:59.080Z,1552
2017-09-08T08:19:08.238Z,1704
2017-09-08T08:20:17.064Z,1664
2017-09-08T08:21:25.898Z,1724
2017-09-08T08:22:34.733Z,1800
2017-09-08T08:23:43.561Z,1748
2017-09-08T08:24:52.392Z,1772
2017-09-08T08:26:01.221Z,1592
2017-09-08T08:27:10.048Z,1556
2017-09-08T08:28:18.882Z,1520
2017-09-08T08:29:27.717Z,1428
2017-09-08T08:30:36.545Z,1348
2017-09-08T08:31:45.377Z,1268
2017-09-08T08:32:54.201Z,1116
2017-09-08T08:34:03.038Z,1100
2017-09-08T08:35:11.869Z,1120
2017-09-08T08:36:20.696Z,1212
2017-09-08T08:37:29.521Z,1244
2017-09-08T08:38:38.355Z,1268
2017-09-08T08:39:47.180Z,1272
2017-09-08T08:40:56.010Z,1328
2017-09-08T08:42:04.841Z,1372
2017-09-08T08:43:13.669Z,1532
2017-09-08T08:44:22.497Z,1524
2017-09-08T08:45:31.327Z,1544
2017-09-08T08:46:40.162Z,1460
2017-09-08T08:47:48.987Z,1444
2017-09-08T08:48:57.813Z,1448
2017-09-08T08:50:06.646Z,1448
2017-09-08T08:51:15.478Z,1304
2017-09-08T08:52:24.308Z,1216
2017-09-08T08:53:33.136Z,1216
2017-09-08T08:54:41.963Z,1068
2017-09-08T08:55:50.794Z,916
2017-09-08T08:56:59.623Z,824
2017-09-08T08:58:08.457Z,796
2017-09-08T08:59:17.282Z,816
2017-09-08T09:00:26.118Z,808
2017-09-08T09:01:34.941Z,828
2017-09-08T09:02:43.771Z,852
2017-09-08T09:03:52.925Z,940
2017-09-08T09:05:01.756Z,904
2017-09-08T09:06:10.585Z,936
2017-09-08T09:07:19.414Z,956
2017-09-08T09:08:28.245Z,1048
2017-09-08T09:09:37.075Z,1096
2017-09-08T09:10:45.910Z,1080
2017-09-08T09:11:54.733Z,1232
2017-09-08T09:13:03.569Z,1200
2017-09-08T09:14:12.400Z,1292
2017-09-08T09:15:21.551Z,1356
2017-09-08T09:16:30.380Z,1400
2017-09-08T09:17:39.206Z,1492
2017-09-08T09:18:48.037Z,1536
2017-09-08T09:19:56.864Z,1420
2017-09-08T09:21:05.697Z,1340
2017-09-08T09:22:14.528Z,1292
2017-09-08T09:23:23.366Z,1320
2017-09-08T09:24:32.194Z,1260
2017-09-08T09:25:41.022Z,1164
2017-09-08T09:26:49.852Z,1212
2017-09-08T09:27:58.679Z,1180
2017-09-08T09:29:07.506Z,1224
2017-09-08T09:30:16.338Z,1236
2017-09-08T09:31:25.173Z,1256
2017-09-08T09:32:34.000Z,1336
2017-09-08T09:33:42.827Z,1468
2017-09-08T09:34:51.659Z,1512
2017-09-08T09:36:00.488Z,1536
2017-09-08T09:37:09.318Z,1720
2017-09-08T09:38:18.150Z,1700
2017-09-08T09:39:26.981Z,1656
2017-09-08T09:40:35.809Z,1692
2017-09-08T09:41:44.640Z,1768
2017-09-08T09:42:53.475Z,1740
2017-09-08T09:44:02.303Z,1864
2017-09-08T09:45:11.140Z,1908
2017-09-08T09:46:19.959Z,2104
2017-09-08T09:47:28.789Z,2300
2017-09-08T09:48:37.621Z,2192
2017-09-08T09:49:46.453Z,2064
2017-09-08T09:50:55.282Z,1948
2017-09-08T09:52:04.112Z,1844
2017-09-08T09:53:12.940Z,1692
2017-09-08T09:54:21.767Z,1524
2017-09-08T09:55:30.602Z,1500
2017-09-08T09:56:39.429Z,1336
2017-09-08T09:57:48.259Z,1228
2017-09-08T09:58:57.089Z,1152
2017-09-08T10:00:05.920Z,1208
2017-09-08T10:01:14.751Z,1248
2017-09-08T10:02:23.902Z,1256
2017-09-08T10:03:32.734Z,1480
2017-09-08T10:04:41.561Z,1320
2017-09-08T10:05:50.392Z,1144
2017-09-08T10:06:59.221Z,1184
2017-09-08T10:08:08.055Z,1168
2017-09-08T10:09:16.883Z,1160
2017-09-08T10:10:25.710Z,1256
2017-09-08T10:11:34.536Z,1356
2017-09-08T10:12:43.365Z,1520
2017-09-08T10:13:52.195Z,1552
2017-09-08T10:15:01.028Z,1480
2017-09-08T10:16:09.855Z,1412
2017-09-08T10:17:18.696Z,1476
2017-09-08T10:18:27.527Z,1524
2017-09-08T10:19:36.362Z,1624
2017-09-08T10:20:45.189Z,1652
2017-09-08T10:21:54.022Z,1456
2017-09-08T10:23:02.847Z,1308
2017-09-08T10:24:11.676Z,1148
2017-09-08T10:25:20.509Z,1088
2017-09-08T10:26:29.343Z,1116
2017-09-08T10:27:38.170Z,1128
2017-09-08T10:28:46.998Z,1148
2017-09-08T10:29:55.826Z,1308
2017-09-08T10:31:04.654Z,1224
2017-09-08T10:32:13.488Z,1224
2017-09-08T10:33:22.316Z,1180
2017-09-08T10:34:31.147Z,1228
2017-09-08T10:35:39.978Z,1144
2017-09-08T10:36:48.808Z,1172
2017-09-08T10:37:57.640Z,1056
2017-09-08T10:39:06.468Z,1076
2017-09-08T10:40:15.296Z,1160
2017-09-08T10:41:24.151Z,1328
2017-09-08T10:42:32.955Z,1416
2017-09-08T10:43:41.782Z,1384
2017-09-08T10:44:50.609Z,1396
2017-09-08T10:45:59.444Z,1444
2017-09-08T10:47:08.273Z,1384
2017-09-08T10:48:17.107Z,1496
2017-09-08T10:49:25.934Z,1544
2017-09-08T10:50:35.097Z,1580
2017-09-08T10:51:44.253Z,1620
2017-09-08T10:52:53.084Z,1580
2017-09-08T10:54:01.918Z,1668
2017-09-08T10:55:10.748Z,1464
2017-09-08T10:56:19.580Z,1412
2017-09-08T10:57:28.408Z,1472
2017-09-08T10:58:37.237Z,1564
2017-09-08T10:59:46.069Z,1492
2017-09-08T11:00:54.903Z,1524
2017-09-08T11:02:03.732Z,1584
2017-09-08T11:03:12.564Z,1712
2017-09-08T11:04:21.398Z,1756
2017-09-08T11:05:30.231Z,1952
2017-09-08T11:06:39.059Z,2020
2017-09-08T11:07:47.889Z,2012
2017-09-08T11:08:56.720Z,2020
2017-09-08T11:10:05.546Z,2084
2017-09-08T11:11:14.380Z,2084
2017-09-08T11:12:23.213Z,2104
2017-09-08T11:13:32.047Z,2080
2017-09-08T11:14:40.875Z,1996
2017-09-08T11:15:49.708Z,1936
2017-09-08T11:16:58.864Z,1992
2017-09-08T11:18:07.693Z,2092
2017-09-08T11:19:16.525Z,1900
2017-09-08T11:20:25.680Z,1844
2017-09-08T11:21:34.517Z,1900
2017-09-08T11:22:43.347Z,1800
2017-09-08T11:23:52.174Z,1760
2017-09-08T11:25:01.013Z,1776
2017-09-08T11:26:10.170Z,1740
2017-09-08T11:27:18.999Z,1796
2017-09-08T11:28:27.833Z,1836
2017-09-08T11:29:36.663Z,1812
2017-09-08T11:30:45.487Z,1784
2017-09-08T11:31:54.320Z,1652
2017-09-08T11:33:03.155Z,1732
2017-09-08T11:34:11.986Z,1684
2017-09-08T11:35:20.818Z,1652
2017-09-08T11:36:29.642Z,1728
2017-09-08T11:37:38.473Z,1700
2017-09-08T11:38:47.307Z,1788
2017-09-08T11:39:56.139Z,1724
2017-09-08T11:41:05.309Z,1684
2017-09-08T11:42:14.142Z,1600
2017-09-08T11:43:22.969Z,1672
2017-09-08T11:44:31.797Z,1608
2017-09-08T11:45:40.633Z,1724
2017-09-08T11:46:49.460Z,1836
2017-09-08T11:47:58.290Z,1800
2017-09-08T11:49:07.120Z,1864
2017-09-08T11:50:15.952Z,1832
2017-09-08T11:51:24.782Z,1968
2017-09-08T11:52:33.609Z,1792
2017-09-08T11:53:42.442Z,1876
2017-09-08T11:54:51.271Z,1804
2017-09-08T11:56:00.104Z,1664
2017-09-08T11:57:08.935Z,1664
2017-09-08T11:58:17.768Z,1696
2017-09-08T11:59:26.596Z,1756
2017-09-08T12:00:35.428Z,1640
2017-09-08T12:01:44.254Z,1580
2017-09-08T12:02:53.088Z,1768
2017-09-08T12:04:01.919Z,1552
2017-09-08T12:05:10.753Z,1592
2017-09-08T12:06:19.585Z,1520
2017-09-08T12:07:28.419Z,1516
2017-09-08T12:08:37.248Z,1472
2017-09-08T12:09:46.076Z,1496
2017-09-08T12:10:54.908Z,1456
2017-09-08T12:12:03.740Z,1508
2017-09-08T12:13:12.574Z,1452
2017-09-08T12:14:21.404Z,1372
2017-09-08T12:15:30.233Z,1336
2017-09-08T12:16:39.066Z,1360
2017-09-08T12:17:47.899Z,1396
2017-09-08T12:18:56.727Z,1408
2017-09-08T12:20:05.556Z,1432
2017-09-08T12:21:14.390Z,1348
2017-09-08T12:22:23.544Z,1372
2017-09-08T12:23:32.374Z,1312
2017-09-08T12:24:41.214Z,1304
2017-09-08T12:25:50.046Z,1252
2017-09-08T12:26:58.880Z,1260
2017-09-08T12:28:07.714Z,1192
2017-09-08T12:29:16.868Z,1180
2017-09-08T12:30:25.699Z,1092
2017-09-08T12:31:34.525Z,1072
2017-09-08T12:32:43.356Z,1004
2017-09-08T12:33:52.187Z,988
2017-09-08T12:35:01.023Z,964
2017-09-08T12:36:10.178Z,972
2017-09-08T12:37:19.005Z,960
2017-09-08T12:38:27.834Z,1040
2017-09-08T12:39:36.992Z,1056
2017-09-08T12:40:45.819Z,1108
2017-09-08T12:41:54.657Z,1136
2017-09-08T12:43:03.488Z,1144
2017-09-08T12:44:12.314Z,1152
2017-09-08T12:45:21.466Z,1256
2017-09-08T12:46:30.301Z,1252
2017-09-08T12:47:39.128Z,1272
2017-09-08T12:48:47.963Z,1284
2017-09-08T12:49:56.786Z,1352
2017-09-08T12:51:05.617Z,1360
2017-09-08T12:52:14.773Z,1308
2017-09-08T12:53:23.609Z,1232
2017-09-08T12:54:32.436Z,1224
2017-09-08T12:55:41.273Z,1296
2017-09-08T12:56:50.099Z,1180
2017-09-08T12:57:58.930Z,1132
2017-09-08T12:59:07.760Z,956
2017-09-08T13:00:16.598Z,1000
2017-09-08T13:01:25.427Z,1056
2017-09-08T13:02:34.261Z,944
2017-09-08T13:03:43.091Z,892
2017-09-08T13:04:51.923Z,968
2017-09-08T13:06:00.758Z,932
2017-09-08T13:07:09.915Z,932
2017-09-08T13:08:18.753Z,952
2017-09-08T13:09:27.904Z,1004
2017-09-08T13:10:36.738Z,936
2017-09-08T13:11:45.888Z,960
2017-09-08T13:12:54.723Z,964
2017-09-08T13:14:03.556Z,948
2017-09-08T13:15:12.396Z,980
2017-09-08T13:16:21.215Z,984
2017-09-08T13:17:30.045Z,964
2017-09-08T13:18:38.877Z,932
2017-09-08T13:19:47.710Z,856
2017-09-08T13:20:56.544Z,900
2017-09-08T13:22:05.374Z,888
2017-09-08T13:23:14.201Z,852
2017-09-08T13:24:23.034Z,844
2017-09-08T13:25:31.860Z,820
2017-09-08T13:26:40.693Z,772
2017-09-08T13:27:49.524Z,820
2017-09-08T13:28:58.353Z,840
2017-09-08T13:30:07.185Z,776
2017-09-08T13:31:16.045Z,848
2017-09-08T13:32:24.851Z,880
2017-09-08T13:33:33.681Z,884
2017-09-08T13:34:42.511Z,952
2017-09-08T13:35:51.666Z,916
2017-09-08T13:37:00.495Z,932
2017-09-08T13:38:09.326Z,836
2017-09-08T13:39:18.152Z,808
2017-09-08T13:40:26.988Z,700
2017-09-08T13:41:35.818Z,652
2017-09-08T13:42:44.648Z,544
2017-09-08T13:43:53.478Z,612
2017-09-08T13:45:02.305Z,608
2017-09-08T13:46:11.138Z,488
2017-09-08T13:47:19.965Z,488
2017-09-08T13:48:28.803Z,460
2017-09-08T13:49:37.634Z,456
2017-09-08T13:50:46.464Z,468
2017-09-08T13:51:55.294Z,480
2017-09-08T13:53:04.122Z,448
2017-09-08T13:54:12.949Z,508
2017-09-08T13:55:21.778Z,636
2017-09-08T13:56:30.608Z,720
2017-09-08T13:57:39.441Z,760
2017-09-08T13:58:48.267Z,704
2017-09-08T13:59:57.100Z,660
2017-09-08T14:01:06.250Z,744
2017-09-08T14:02:15.078Z,624
2017-09-08T14:03:23.913Z,756
2017-09-08T14:04:32.739Z,856
2017-09-08T14:05:41.570Z,976
2017-09-08T14:06:50.395Z,1024
2017-09-08T14:07:59.230Z,1048
2017-09-08T14:09:08.061Z,920
2017-09-08T14:10:17.214Z,800
2017-09-08T14:11:26.044Z,700
2017-09-08T14:12:34.872Z,648
2017-09-08T14:13:43.698Z,576
2017-09-08T14:14:52.528Z,596
2017-09-08T14:16:01.358Z,644
2017-09-08T14:17:10.191Z,672
2017-09-08T14:18:19.019Z,676
2017-09-08T14:19:27.846Z,640
2017-09-08T14:20:36.674Z,520
2017-09-08T14:21:45.507Z,484
2017-09-08T14:22:54.661Z,460
2017-09-08T14:24:03.818Z,448
2017-09-08T14:25:12.646Z,412
2017-09-08T14:26:21.804Z,372
2017-09-08T14:27:30.631Z,320
2017-09-08T14:28:39.463Z,320
2017-09-08T14:29:48.294Z,336
2017-09-08T14:30:57.123Z,340
2017-09-08T14:32:05.953Z,344
2017-09-08T14:33:14.783Z,336
2017-09-08T14:34:23.609Z,300
2017-09-08T14:35:32.441Z,280
2017-09-08T14:36:41.271Z,268
2017-09-08T14:37:50.100Z,284
2017-09-08T14:38:58.933Z,332
2017-09-08T14:40:07.767Z,332
2017-09-08T14:41:16.593Z,360
2017-09-08T14:42:25.745Z,444
2017-09-08T14:43:34.578Z,624
2017-09-08T14:44:43.407Z,640
2017-09-08T14:45:52.241Z,556
2017-09-08T14:47:01.068Z,532
2017-09-08T14:48:09.894Z,528
2017-09-08T14:49:18.726Z,536
2017-09-08T14:50:27.559Z,436
2017-09-08T14:51:36.392Z,500
2017-09-08T14:52:45.218Z,548
2017-09-08T14:53:54.049Z,584
2017-09-08T14:55:02.873Z,592
2017-09-08T14:56:11.706Z,572
2017-09-08T14:57:20.539Z,456
2017-09-08T14:58:29.369Z,464
2017-09-08T14:59:38.195Z,464
2017-09-08T15:00:47.027Z,412
2017-09-08T15:01:55.853Z,524
2017-09-08T15:03:04.686Z,528
2017-09-08T15:04:13.524Z,432
2017-09-08T15:05:22.685Z,352
2017-09-08T15:06:31.510Z,464
2017-09-08T15:07:40.345Z,608
2017-09-08T15:08:49.203Z,592
2017-09-08T15:09:57.997Z,676
2017-09-08T15:11:06.829Z,632
2017-09-08T15:12:15.655Z,828
2017-09-08T15:13:24.481Z,788
2017-09-08T15:14:33.316Z,608
2017-09-08T15:15:42.147Z,624
2017-09-08T15:16:50.979Z,732
2017-09-08T15:17:59.811Z,820
2017-09-08T15:19:08.692Z,708
2017-09-08T15:20:17.517Z,764
2017-09-08T15:21:26.350Z,692
2017-09-08T15:22:35.178Z,604
2017-09-08T15:23:44.011Z,528
2017-09-08T15:24:52.838Z,388
2017-09-08T15:26:01.668Z,404
2017-09-08T15:27:10.498Z,312
2017-09-08T15:28:19.329Z,268
2017-09-08T15:29:28.153Z,236
2017-09-08T15:30:36.984Z,232
2017-09-08T15:31:45.815Z,240
2017-09-08T15:32:54.642Z,260
2017-09-08T15:34:03.467Z,252
2017-09-08T15:35:12.301Z,296
2017-09-08T15:36:21.128Z,328
2017-09-08T15:37:29.961Z,304
2017-09-08T15:38:38.797Z,316
2017-09-08T15:39:47.624Z,328
2017-09-08T15:40:56.457Z,312
2017-09-08T15:42:05.285Z,360
2017-09-08T15:43:14.114Z,336
2017-09-08T15:44:22.945Z,344
2017-09-08T15:45:31.774Z,372
2017-09-08T15:46:40.607Z,392
2017-09-08T15:47:49.433Z,392
2017-09-08T15:48:58.262Z,392
2017-09-08T15:50:07.090Z,384
2017-09-08T15:51:15.922Z,360
2017-09-08T15:52:24.748Z,352
2017-09-08T15:53:33.582Z,380
2017-09-08T15:54:42.411Z,408
2017-09-08T15:55:51.239Z,384
2017-09-08T15:57:00.067Z,360